Time;durP1;ratioP1;P1;durP2;ratioP2;P2;SDS_P1;SDS_P2;PMS_P1;PMS_P2;Temp;Humidity;BMP_temperature;BMP_pressure;BME280_temperature;BME280_humidity;BME280_pressure;Samples;Min_cycle;Max_cycle;Signal;HPM_P1;HPM_P2
2022/10/18 00:01:32;;;;;;;4.60;2.47;;;;;;;16.51;61.14;101465.72;10071141;29;20205;-81
2022/10/18 00:06:54;;;;;;;4.13;2.15;;;;;;;17.18;58.94;101461.69;10089792;29;20266;-81
2022/10/18 00:12:16;;;;;;;9.53;2.23;;;;;;;17.18;58.49;101470.25;10107739;29;20301;-80
2022/10/18 00:17:38;;;;;;;4.07;2.17;;;;;;;17.39;57.78;101470.97;10081273;29;20202;-81
2022/10/18 00:23:00;;;;;;;5.45;2.30;;;;;;;17.12;58.91;101465.94;10107796;29;20198;-80
2022/10/18 00:28:22;;;;;;;4.07;2.10;;;;;;;16.88;60.36;101467.53;10107487;29;20238;-81
2022/10/18 00:33:46;;;;;;;4.20;2.17;;;;;;;16.88;60.22;101458.97;10093418;29;20190;-81
2022/10/18 00:39:14;;;;;;;2.03;1.85;;;;;;;17.44;57.78;101465.06;10093257;29;20194;-81
2022/10/18 00:44:37;;;;;;;3.30;2.15;;;;;;;16.81;60.52;101460.72;10092982;29;20599;-81
2022/10/18 00:50:02;;;;;;;3.72;2.15;;;;;;;16.76;60.25;101458.94;10102899;29;20301;-81
2022/10/18 00:55:25;;;;;;;5.00;2.50;;;;;;;17.30;58.51;101449.47;10102111;29;20206;-81
2022/10/18 01:00:47;;;;;;;6.05;2.50;;;;;;;17.33;58.55;101448.75;10074996;29;20210;-81
2022/10/18 01:06:09;;;;;;;3.72;2.40;;;;;;;16.71;61.20;101449.78;10087720;29;20247;-81
2022/10/18 01:11:43;;;;;;;6.05;3.28;;;;;;;17.03;60.16;101436.72;10087033;29;20596;-80
2022/10/18 01:17:12;;;;;;;4.07;2.90;;;;;;;16.82;60.65;101425.38;10104260;29;20194;-82
2022/10/18 01:22:44;;;;;;;3.53;2.45;;;;;;;16.25;62.79;101426.13;10091609;29;20194;-82
2022/10/18 01:28:46;;;;;;;4.28;2.10;;;;;;;16.41;62.19;101443.38;10091657;29;20552;-82
2022/10/18 01:34:09;;;;;;;6.68;2.70;;;;;;;15.74;64.79;101447.22;10088302;29;20206;-81
2022/10/18 01:39:34;;;;;;;2.90;2.03;;;;;;;16.23;62.67;101439.03;10091407;29;20182;-82
2022/10/18 01:44:57;;;;;;;4.77;2.33;;;;;;;15.95;63.70;101442.38;10078442;29;20198;-82
2022/10/18 01:50:30;;;;;;;5.07;2.22;;;;;;;16.69;61.26;101430.19;10090565;29;20275;-81
2022/10/18 01:56:26;;;;;;;5.30;2.40;;;;;;;16.35;62.42;101419.16;10090537;29;20194;-82
2022/10/18 02:02:08;;;;;;;4.17;2.27;;;;;;;16.35;63.03;101419.16;10087109;29;20611;-82
2022/10/18 02:07:51;;;;;;;6.18;2.47;;;;;;;16.77;60.86;101420.75;10089948;29;20272;-81
2022/10/18 02:13:16;;;;;;;2.63;1.98;;;;;;;16.89;59.73;101412.22;10073902;29;20571;-82
2022/10/18 02:18:41;;;;;;;3.08;1.63;;;;;;;17.28;58.40;101419.31;10089740;29;20190;-82
2022/10/18 02:24:04;;;;;;;5.38;2.10;;;;;;;17.05;58.95;101411.59;10089413;29;20225;-82
2022/10/18 02:29:27;;;;;;;3.05;1.95;;;;;;;16.66;60.71;101413.84;10088807;29;20277;-82
2022/10/18 02:34:58;;;;;;;4.68;2.00;;;;;;;16.62;60.29;101409.19;10102472;29;20193;-81
2022/10/18 02:40:20;;;;;;;4.00;1.70;;;;;;;16.72;60.81;101408.75;10075893;29;20202;-82
2022/10/18 02:45:42;;;;;;;5.85;1.80;;;;;;;16.62;61.36;101418.56;10088551;29;20219;-82
2022/10/18 02:51:04;;;;;;;3.03;1.70;;;;;;;16.78;60.56;101411.03;10088420;29;20218;-82
2022/10/18 02:56:26;;;;;;;4.10;1.67;;;;;;;16.85;60.04;101418.97;10088652;29;20415;-82
2022/10/18 03:01:49;;;;;;;2.08;1.10;;;;;;;16.89;59.84;101412.22;10087982;29;20271;-82
2022/10/18 03:07:11;;;;;;;2.72;1.70;;;;;;;16.47;61.35;101417.19;10091952;29;20261;-82
2022/10/18 03:12:33;;;;;;;2.38;1.40;;;;;;;16.26;62.67;101415.56;10074650;29;20230;-82
2022/10/18 03:17:55;;;;;;;6.03;2.00;;;;;;;16.81;60.44;101412.31;10087645;29;20194;-81
2022/10/18 03:23:17;;;;;;;7.57;2.13;;;;;;;16.77;60.37;101414.22;10101059;29;20189;-81
2022/10/18 03:28:39;;;;;;;3.83;2.28;;;;;;;16.45;62.46;101413.03;10074497;29;20226;-82
2022/10/18 03:34:01;;;;;;;7.25;2.30;;;;;;;16.69;60.58;101424.50;10087005;29;20722;-81
2022/10/18 03:39:23;;;;;;;3.07;2.17;;;;;;;16.63;60.75;101420.22;10086648;29;20223;-82
2022/10/18 03:44:45;;;;;;;4.15;2.28;;;;;;;16.47;61.48;101420.06;10086576;29;20194;-82
2022/10/18 03:50:07;;;;;;;10.27;2.70;;;;;;;16.67;61.15;101426.88;10068875;29;20234;-82
2022/10/18 03:55:29;;;;;;;4.82;2.00;;;;;;;17.01;60.02;101422.00;10086586;29;20194;-82
2022/10/18 04:00:53;;;;;;;5.30;2.45;;;;;;;16.72;60.60;101423.81;10084898;29;20206;-81
2022/10/18 04:06:15;;;;;;;4.68;2.70;;;;;;;17.01;59.88;101419.16;10078850;29;20205;-82
2022/10/18 04:11:37;;;;;;;6.13;3.22;;;;;;;16.72;60.74;101418.13;10093415;29;20332;-81
2022/10/18 04:16:59;;;;;;;5.15;3.10;;;;;;;16.77;60.67;101417.91;10083391;29;20205;-81
2022/10/18 04:22:21;;;;;;;4.20;3.13;;;;;;;16.30;62.72;101423.06;10097564;29;20201;-81
2022/10/18 04:27:43;;;;;;;5.82;3.17;;;;;;;16.64;61.62;101409.69;10082799;29;20503;-82
2022/10/18 04:33:05;;;;;;;7.07;3.92;;;;;;;16.97;60.17;101423.91;10069984;29;20218;-82
2022/10/18 04:38:27;;;;;;;7.43;4.47;;;;;;;17.14;60.13;101424.53;10068021;29;20198;-82
2022/10/18 04:43:49;;;;;;;5.40;3.83;;;;;;;16.69;60.34;101427.34;10080594;29;20202;-81
2022/10/18 04:49:11;;;;;;;10.05;5.50;;;;;;;17.06;60.17;101433.16;10084643;29;20271;-81
2022/10/18 04:54:33;;;;;;;13.35;6.65;;;;;;;16.92;60.24;101422.94;10088382;29;20198;-81
2022/10/18 04:59:55;;;;;;;9.20;6.00;;;;;;;17.10;60.11;101434.13;10067703;29;20273;-82
2022/10/18 05:05:17;;;;;;;12.25;6.28;;;;;;;17.13;59.80;101425.72;10083167;29;20233;-83
2022/10/18 05:10:39;;;;;;;14.50;7.32;;;;;;;17.09;60.11;101435.31;10095884;29;20248;-82
2022/10/18 05:16:01;;;;;;;16.92;7.80;;;;;;;17.14;59.66;101423.69;10085352;29;20202;-82
2022/10/18 05:21:23;;;;;;;14.43;7.80;;;;;;;17.24;59.24;101431.78;10097829;29;20271;-82
2022/10/18 05:26:45;;;;;;;12.63;7.70;;;;;;;16.88;60.01;101424.81;10085314;29;20279;-82
2022/10/18 05:32:08;;;;;;;11.80;8.07;;;;;;;16.96;59.80;101434.44;10083873;29;20258;-82
2022/10/18 05:37:30;;;;;;;15.05;7.53;;;;;;;17.58;57.99;101414.19;10099895;29;20194;-81
2022/10/18 05:42:52;;;;;;;17.85;8.20;;;;;;;17.68;57.41;101426.34;10100133;29;20206;-82
2022/10/18 05:48:14;;;;;;;18.63;9.00;;;;;;;17.37;58.54;101416.34;10080091;29;20249;-79
2022/10/18 05:53:36;;;;;;;17.90;9.23;;;;;;;17.27;58.73;101414.81;10102172;29;20257;-80
2022/10/18 05:58:58;;;;;;;16.10;9.43;;;;;;;17.65;57.24;101416.47;10085990;29;20273;-82
2022/10/18 06:04:20;;;;;;;20.87;10.37;;;;;;;17.40;58.27;101432.75;10080748;29;20695;-82
2022/10/18 06:09:42;;;;;;;18.83;9.52;;;;;;;17.55;57.65;101451.16;10090685;29;20293;-82
2022/10/18 06:15:04;;;;;;;22.93;9.80;;;;;;;17.32;59.00;101455.66;10100647;29;20198;-82
2022/10/18 06:20:26;;;;;;;17.63;10.18;;;;;;;17.50;57.83;101460.75;10070975;29;20675;-82
2022/10/18 06:25:48;;;;;;;19.27;10.80;;;;;;;17.43;58.29;101460.53;10105749;29;20209;-82
2022/10/18 06:31:11;;;;;;;19.77;10.68;;;;;;;17.71;57.68;101454.13;10100830;29;20221;-82
2022/10/18 06:36:33;;;;;;;23.60;12.03;;;;;;;17.39;58.70;101465.28;10082090;29;20254;-82
2022/10/18 06:41:55;;;;;;;23.13;12.23;;;;;;;17.63;57.89;101462.44;10088136;29;20206;-82
2022/10/18 06:47:17;;;;;;;20.67;12.52;;;;;;;17.70;57.47;101478.16;10066271;29;20214;-82
2022/10/18 06:52:40;;;;;;;24.50;13.30;;;;;;;17.83;56.93;101474.94;10080348;29;20237;-82
2022/10/18 06:58:02;;;;;;;19.88;12.23;;;;;;;17.76;57.45;101482.41;10087391;29;20235;-82
2022/10/18 07:03:25;;;;;;;27.63;13.70;;;;;;;17.60;57.99;101488.78;10071124;29;20270;-82
2022/10/18 07:08:49;;;;;;;23.07;13.23;;;;;;;17.47;57.50;101500.53;10086326;29;20217;-82
2022/10/18 07:14:11;;;;;;;26.08;14.77;;;;;;;17.73;57.67;101497.38;10085759;29;20293;-82
2022/10/18 07:19:33;;;;;;;22.75;13.45;;;;;;;17.68;57.38;101497.63;10098748;29;20202;-82
2022/10/18 07:24:55;;;;;;;28.98;15.38;;;;;;;17.72;57.71;101501.41;10071695;29;20205;-82
2022/10/18 07:30:17;;;;;;;29.53;16.57;;;;;;;17.61;58.31;101513.28;10061755;29;20266;-82
2022/10/18 07:35:39;;;;;;;29.45;16.60;;;;;;;17.63;58.52;101516.63;10083551;29;20201;-81
2022/10/18 07:41:03;;;;;;;28.85;16.70;;;;;;;18.01;57.00;101508.88;10098292;29;20623;-81
2022/10/18 07:46:25;;;;;;;27.77;15.77;;;;;;;17.63;57.32;101528.03;10083974;29;20285;-81
2022/10/18 07:51:47;;;;;;;34.35;16.45;;;;;;;17.70;58.78;101526.63;10097681;29;20263;-81
2022/10/18 07:57:09;;;;;;;41.00;17.83;;;;;;;17.76;58.55;101533.72;10065768;29;20214;-81
2022/10/18 08:02:31;;;;;;;28.08;15.52;;;;;;;17.09;59.36;101557.78;10067360;29;20234;-81
2022/10/18 08:07:54;;;;;;;27.00;16.63;;;;;;;16.56;60.92;101567.97;10088727;29;20246;-81
2022/10/18 08:13:16;;;;;;;38.78;19.92;;;;;;;17.42;59.25;101563.50;10084637;29;20233;-81
2022/10/18 08:18:38;;;;;;;36.60;20.92;;;;;;;17.74;59.15;101573.19;10084016;29;20198;-81
2022/10/18 08:24:00;;;;;;;31.90;19.58;;;;;;;17.50;58.55;101580.47;10085820;29;20201;-81
2022/10/18 08:29:23;;;;;;;37.58;22.55;;;;;;;17.60;58.89;101584.88;10090684;29;20221;-80
2022/10/18 08:34:45;;;;;;;38.95;21.98;;;;;;;17.72;58.10;101581.25;10042771;29;20274;-81
2022/10/18 08:40:11;;;;;;;36.42;21.67;;;;;;;16.64;60.42;101595.53;10029209;29;20196;-81
2022/10/18 08:45:36;;;;;;;46.70;26.52;;;;;;;17.37;59.12;101598.72;10015960;29;20601;-81
2022/10/18 08:50:58;;;;;;;44.72;27.88;;;;;;;16.49;62.50;101607.53;10014726;29;20260;-81
2022/10/18 08:56:23;;;;;;;46.88;30.05;;;;;;;17.07;59.37;101611.44;10016777;29;20219;-81
2022/10/18 09:02:10;;;;;;;51.10;30.57;;;;;;;17.94;57.03;101598.75;10010561;29;20203;-81
2022/10/18 09:07:32;;;;;;;50.57;30.33;;;;;;;17.01;59.86;101618.53;10021993;29;20254;-81
2022/10/18 09:13:07;;;;;;;62.80;31.97;;;;;;;17.50;59.27;101616.69;10031218;29;20287;-81
2022/10/18 09:19:01;;;;;;;50.42;30.45;;;;;;;17.37;58.69;101620.69;10017966;29;20199;-81
2022/10/18 09:24:39;;;;;;;45.83;28.08;;;;;;;17.78;57.02;101625.47;10014704;29;20203;-80
2022/10/18 09:30:22;;;;;;;54.70;30.75;;;;;;;16.78;60.72;101630.25;10027998;29;20280;-80
2022/10/18 09:35:52;;;;;;;47.17;28.45;;;;;;;17.35;58.79;101641.00;9975649;29;20535;-80
2022/10/18 09:41:39;;;;;;;42.92;27.50;;;;;;;16.25;61.60;101642.34;9975442;29;20254;-80
2022/10/18 09:47:09;;;;;;;39.95;27.83;;;;;;;17.09;59.43;101637.56;10013386;29;20320;-81
2022/10/18 09:52:36;;;;;;;35.30;25.58;;;;;;;16.46;61.46;101642.38;10008541;29;20539;-81
2022/10/18 09:57:59;;;;;;;39.50;27.27;;;;;;;18.07;55.96;101633.00;10020008;29;20224;-81
2022/10/18 10:03:21;;;;;;;36.43;27.00;;;;;;;18.10;55.32;101633.09;10007014;29;20255;-81
2022/10/18 10:08:48;;;;;;;30.13;23.40;;;;;;;17.00;57.30;101642.50;10021669;29;20521;-81
2022/10/18 10:14:25;;;;;;;35.70;23.75;;;;;;;17.85;54.94;101635.09;10008546;29;20699;-81
2022/10/18 10:20:02;;;;;;;30.85;23.33;;;;;;;17.71;55.65;101636.59;10017977;29;20196;-81
2022/10/18 10:25:31;;;;;;;36.50;25.85;;;;;;;18.01;55.03;101640.94;10024540;29;20207;-81
2022/10/18 10:30:53;;;;;;;49.60;30.23;;;;;;;18.11;54.99;101643.31;10021029;29;20258;-81
2022/10/18 10:36:18;;;;;;;47.63;32.90;;;;;;;17.33;57.89;101649.06;10010066;29;20248;-81
2022/10/18 10:41:40;;;;;;;45.10;31.83;;;;;;;17.98;55.36;101644.50;10003760;29;20264;-81
2022/10/18 10:47:03;;;;;;;55.28;36.38;;;;;;;18.37;54.83;101650.72;10009818;29;20199;-80
2022/10/18 10:52:27;;;;;;;47.45;32.10;;;;;;;17.19;57.22;101654.22;10007591;29;20283;-80
2022/10/18 10:57:50;;;;;;;50.15;32.90;;;;;;;17.86;55.80;101650.19;9997755;29;20199;-81
2022/10/18 11:03:15;;;;;;;43.55;33.63;;;;;;;17.74;55.52;101653.03;10011775;29;20195;-81
2022/10/18 11:08:40;;;;;;;48.83;33.42;;;;;;;17.76;54.75;101657.19;10010194;29;20524;-81
2022/10/18 11:13:50;;;;;;;45.95;33.08;;;;;;;17.86;54.77;101656.72;10023858;29;20645;-81
2022/10/18 11:19:33;;;;;;;45.35;33.83;;;;;;;18.33;53.54;101647.78;10008298;29;20272;-81
2022/10/18 11:24:55;;;;;;;47.63;31.60;;;;;;;17.83;54.90;101645.22;10018354;29;20206;-81
2022/10/18 11:30:30;;;;;;;47.17;34.10;;;;;;;18.80;52.51;101641.53;10002778;29;20291;-80
2022/10/18 11:36:17;;;;;;;39.17;28.88;;;;;;;18.15;52.79;101630.03;10022434;29;20215;-81
2022/10/18 11:41:32;;;;;;;42.78;29.65;;;;;;;18.83;52.84;101643.66;10008980;29;20498;-81
2022/10/18 11:47:16;;;;;;;38.20;27.52;;;;;;;18.45;52.72;101644.09;10022910;29;20604;-80
2022/10/18 11:52:46;;;;;;;29.42;23.25;;;;;;;18.77;49.94;101633.66;10033432;29;20292;-81
2022/10/18 11:58:46;;;;;;;29.30;22.65;;;;;;;18.89;50.56;101637.31;10018347;29;20263;-81
2022/10/18 12:04:12;;;;;;;25.92;22.15;;;;;;;18.78;48.97;101619.03;10001398;29;20199;-80
2022/10/18 12:09:42;;;;;;;28.23;21.85;;;;;;;18.99;48.86;101622.59;10003928;29;20307;-80
2022/10/18 12:14:50;;;;;;;26.50;20.52;;;;;;;18.80;49.40;101610.94;9984837;29;20268;-80
2022/10/18 12:20:42;;;;;;;26.02;20.88;;;;;;;18.50;48.18;101618.13;10004509;29;20642;-80
2022/10/18 12:26:06;;;;;;;28.13;21.40;;;;;;;18.43;48.93;101600.78;9993073;29;20207;-80
2022/10/18 12:31:37;;;;;;;26.33;21.63;;;;;;;18.79;47.88;101611.28;9987486;29;20287;-81
2022/10/18 12:37:28;;;;;;;21.48;16.50;;;;;;;17.96;48.54;101612.69;10022015;29;20191;-80
2022/10/18 12:42:52;;;;;;;22.50;17.85;;;;;;;18.05;48.33;101616.22;10002944;29;20510;-81
2022/10/18 12:48:27;;;;;;;21.52;16.75;;;;;;;17.48;49.84;101613.38;10013289;29;20263;-80
2022/10/18 12:54:08;;;;;;;22.80;16.05;;;;;;;18.95;46.81;101615.94;10021475;29;20217;-80
2022/10/18 12:59:30;;;;;;;17.92;14.00;;;;;;;17.93;48.59;101619.91;10004563;29;20229;-80
2022/10/18 13:04:55;;;;;;;17.83;12.63;;;;;;;19.26;45.57;101600.09;10006151;29;20609;-81
2022/10/18 13:10:11;;;;;;;16.13;10.52;;;;;;;17.60;47.96;101619.94;9994971;29;20263;-81
2022/10/18 13:15:40;;;;;;;12.35;8.07;;;;;;;18.51;44.36;101605.53;10023298;29;20608;-80
2022/10/18 13:21:14;;;;;;;10.65;5.60;;;;;;;18.73;43.44;101604.19;10027332;29;20256;-80
2022/10/18 13:27:11;;;;;;;12.77;5.03;;;;;;;18.75;41.71;101608.31;10006610;29;20219;-80
2022/10/18 13:32:45;;;;;;;10.93;4.93;;;;;;;19.17;41.69;101602.25;10007524;29;20270;-81
2022/10/18 13:38:32;;;;;;;10.23;4.78;;;;;;;19.17;43.22;101596.53;10009405;29;20618;-80
2022/10/18 13:43:56;;;;;;;12.85;4.85;;;;;;;19.53;40.85;101595.50;10008838;29;20203;-81
2022/10/18 13:49:39;;;;;;;11.48;5.50;;;;;;;19.28;40.85;101597.66;9998729;29;20318;-80
2022/10/18 13:55:27;;;;;;;6.63;3.50;;;;;;;18.55;39.10;101598.75;9996433;29;20214;-81
2022/10/18 14:01:20;;;;;;;6.75;3.50;;;;;;;18.82;38.66;101594.28;10018145;29;20200;-80
2022/10/18 14:06:44;;;;;;;9.18;2.22;;;;;;;18.18;39.50;101612.19;10005287;29;20355;-81
2022/10/18 14:12:29;;;;;;;9.30;2.30;;;;;;;18.14;39.29;101605.53;9994525;29;20266;-81
2022/10/18 14:17:57;;;;;;;6.72;2.40;;;;;;;18.95;37.16;101607.34;9998679;29;20238;-80
2022/10/18 14:23:22;;;;;;;5.80;1.73;;;;;;;18.46;39.27;101600.91;9997947;29;20200;-81
2022/10/18 14:29:01;;;;;;;5.38;2.22;;;;;;;18.10;38.69;101609.44;10001833;29;20219;-80
2022/10/18 14:34:24;;;;;;;6.45;2.72;;;;;;;18.41;38.60;101621.13;10009688;29;20236;-81
2022/10/18 14:39:46;;;;;;;14.40;2.55;;;;;;;18.29;39.50;101613.41;9986557;29;20256;-80
2022/10/18 14:45:18;;;;;;;8.20;1.98;;;;;;;18.54;39.11;101619.91;10021248;29;20678;-81
2022/10/18 14:50:41;;;;;;;4.65;1.30;;;;;;;17.89;39.11;101629.53;10006978;29;20633;-80
2022/10/18 14:56:04;;;;;;;4.32;1.13;;;;;;;18.13;38.57;101615.28;9978111;29;20513;-80
2022/10/18 15:01:31;;;;;;;5.03;1.38;;;;;;;18.18;39.82;101628.47;10019313;29;20239;-82
2022/10/18 15:06:53;;;;;;;7.50;1.92;;;;;;;18.63;37.08;101628.34;10006678;29;20226;-82
2022/10/18 15:12:16;;;;;;;5.47;1.50;;;;;;;18.42;37.47;101634.22;10007573;29;20296;-82
2022/10/18 15:17:39;;;;;;;6.05;1.30;;;;;;;18.66;37.21;101622.75;9979725;29;20226;-81
2022/10/18 15:23:22;;;;;;;4.57;1.63;;;;;;;18.23;38.81;101629.06;9992448;29;20251;-81
2022/10/18 15:28:52;;;;;;;5.95;2.00;;;;;;;18.57;38.24;101629.78;9980070;29;20215;-82
2022/10/18 15:34:21;;;;;;;3.85;1.15;;;;;;;18.15;37.79;101627.16;10003364;29;20617;-82
2022/10/18 15:39:43;;;;;;;4.93;1.20;;;;;;;18.33;38.83;101627.81;10001973;29;20202;-80
2022/10/18 15:45:37;;;;;;;5.88;1.65;;;;;;;18.27;39.19;101638.59;9989353;29;20267;-82
2022/10/18 15:51:07;;;;;;;5.30;1.30;;;;;;;18.31;38.40;101648.13;9992183;29;20262;-81
2022/10/18 15:56:34;;;;;;;6.22;0.90;;;;;;;18.27;37.65;101627.16;9982135;29;20242;-82
2022/10/18 16:01:56;;;;;;;4.80;1.45;;;;;;;18.20;38.75;101641.22;10011653;29;20267;-82
2022/10/18 16:07:19;;;;;;;4.88;1.10;;;;;;;18.08;38.05;101640.38;9981002;29;20668;-82
2022/10/18 16:12:47;;;;;;;3.65;1.05;;;;;;;17.75;38.70;101646.97;9983188;29;20359;-82
2022/10/18 16:17:54;;;;;;;6.17;1.53;;;;;;;17.46;41.39;101658.50;9992410;29;20238;-81
2022/10/18 16:23:20;;;;;;;7.63;1.42;;;;;;;17.02;42.43;101654.41;9972399;29;20307;-81
2022/10/18 16:28:42;;;;;;;7.07;1.00;;;;;;;17.10;42.58;101657.16;9962524;29;20295;-82
2022/10/18 16:34:05;;;;;;;4.32;1.52;;;;;;;16.78;42.81;101661.59;9976845;29;20226;-80
2022/10/18 16:39:30;;;;;;;9.70;1.57;;;;;;;16.46;44.89;101667.97;9988952;29;20648;-81
2022/10/18 16:44:53;;;;;;;6.50;1.02;;;;;;;15.95;45.12;101669.03;9976757;29;20246;-83
2022/10/18 16:50:17;;;;;;;5.30;1.13;;;;;;;16.27;44.87;101674.13;9992772;29;20254;-81
2022/10/18 16:55:40;;;;;;;9.05;1.55;;;;;;;16.01;45.58;101677.06;9995319;29;20271;-82
2022/10/18 17:01:02;;;;;;;14.47;2.80;;;;;;;15.63;46.88;101676.16;9999176;29;20272;-82
2022/10/18 17:06:27;;;;;;;12.10;2.40;;;;;;;15.58;47.17;101677.16;10020355;29;20593;-83
2022/10/18 17:11:49;;;;;;;11.37;2.73;;;;;;;15.41;47.61;101691.38;9984804;29;20257;-83
2022/10/18 17:17:12;;;;;;;12.30;2.80;;;;;;;15.01;48.68;101699.22;10004132;29;20234;-82
2022/10/18 17:22:34;;;;;;;8.00;2.70;;;;;;;15.60;46.35;101708.09;9988389;29;20227;-82
2022/10/18 17:27:56;;;;;;;14.70;3.93;;;;;;;15.33;47.95;101710.09;10007336;29;20291;-82
2022/10/18 17:33:19;;;;;;;15.70;5.40;;;;;;;14.79;49.66;101708.72;10025278;29;20263;-82
2022/10/18 17:38:42;;;;;;;20.77;7.27;;;;;;;15.16;48.40;101721.44;9986258;29;20253;-83
2022/10/18 17:44:05;;;;;;;20.98;7.72;;;;;;;15.08;48.73;101734.50;9997925;29;20211;-82
2022/10/18 17:49:27;;;;;;;16.73;6.43;;;;;;;15.07;49.03;101720.63;10015043;29;20266;-82
2022/10/18 17:54:49;;;;;;;22.60;7.73;;;;;;;14.86;48.94;101736.59;9968591;29;20303;-83
2022/10/18 18:00:12;;;;;;;20.47;10.03;;;;;;;14.92;48.67;101729.63;9992441;29;20230;-84
2022/10/18 18:05:34;;;;;;;26.60;9.47;;;;;;;14.36;49.93;101739.75;9984002;29;20660;-84
2022/10/18 18:10:56;;;;;;;21.40;9.07;;;;;;;14.39;49.85;101744.78;9979480;29;20258;-83
2022/10/18 18:16:24;;;;;;;20.70;8.77;;;;;;;13.87;51.64;101737.97;9974275;29;20641;-82
2022/10/18 18:21:46;;;;;;;17.80;8.13;;;;;;;14.28;50.13;101729.22;9982927;29;20231;-83
2022/10/18 18:27:09;;;;;;;17.27;6.97;;;;;;;14.31;49.88;101731.41;9982379;29;20232;-82
2022/10/18 18:32:31;;;;;;;21.70;7.37;;;;;;;13.76;52.17;101745.94;9974418;29;20314;-84
2022/10/18 18:37:53;;;;;;;17.53;7.13;;;;;;;13.71;51.58;101757.38;9995344;29;20256;-82
2022/10/18 18:43:03;;;;;;;11.73;6.90;;;;;;;13.46;51.38;101766.50;9984180;29;20223;-83
2022/10/18 18:48:26;;;;;;;14.10;7.67;;;;;;;12.89;53.51;101768.97;9998031;29;20207;-82
2022/10/18 18:53:48;;;;;;;15.73;8.20;;;;;;;13.67;51.34;101773.38;9993375;29;20255;-82
2022/10/18 18:59:12;;;;;;;14.37;9.30;;;;;;;13.61;51.63;101763.31;9994532;29;20271;-81
2022/10/18 19:04:35;;;;;;;15.37;10.23;;;;;;;13.53;51.10;101764.09;9978261;29;20202;-81
2022/10/18 19:09:57;;;;;;;17.83;9.07;;;;;;;13.85;50.49;101752.47;10008360;29;20668;-84
2022/10/18 19:15:22;;;;;;;20.57;10.27;;;;;;;12.84;52.05;101760.56;10018162;29;20238;-83
2022/10/18 19:20:44;;;;;;;19.03;9.60;;;;;;;12.76;52.80;101769.81;10017351;29;20271;-82
2022/10/18 19:26:21;;;;;;;14.50;9.53;;;;;;;13.48;51.11;101764.22;10008936;29;20195;-82
2022/10/18 19:31:44;;;;;;;16.33;8.37;;;;;;;13.11;51.33;101774.69;9985893;29;20239;-82
2022/10/18 19:37:08;;;;;;;15.93;7.93;;;;;;;12.95;51.74;101777.00;10021387;29;20207;-83
2022/10/18 19:42:30;;;;;;;22.23;7.50;;;;;;;12.85;51.98;101768.75;10001273;29;20223;-83
2022/10/18 19:47:52;;;;;;;16.63;7.77;;;;;;;12.78;51.67;101778.81;9999511;29;20215;-82
2022/10/18 19:53:14;;;;;;;17.73;7.00;;;;;;;12.75;51.60;101790.78;10010267;29;20231;-83
2022/10/18 19:58:36;;;;;;;9.83;6.27;;;;;;;12.79;51.52;101792.63;10019986;29;20203;-83
2022/10/18 20:03:58;;;;;;;14.17;5.87;;;;;;;12.57;52.27;101784.91;10008279;29;20222;-83
2022/10/18 20:09:21;;;;;;;10.07;6.00;;;;;;;12.60;53.38;101784.28;10005384;29;20805;-83
2022/10/18 20:14:43;;;;;;;12.97;6.03;;;;;;;12.42;52.16;101787.19;10012916;29;20279;-83
2022/10/18 20:20:06;;;;;;;12.17;6.10;;;;;;;12.24;53.03;101797.41;10005738;29;20207;-84
2022/10/18 20:25:28;;;;;;;14.43;6.50;;;;;;;12.21;52.37;101793.22;10035223;29;20210;-83
2022/10/18 20:31:01;;;;;;;10.27;5.50;;;;;;;12.19;53.30;101792.69;10010123;29;20219;-83
2022/10/18 20:36:23;;;;;;;14.57;5.60;;;;;;;11.80;53.39;101787.47;9994198;29;20199;-82
2022/10/18 20:41:45;;;;;;;15.30;5.53;;;;;;;12.21;51.74;101798.03;10024890;29;20489;-83
2022/10/18 20:47:08;;;;;;;5.90;4.60;;;;;;;11.85;53.42;101790.22;9992851;29;20266;-83
2022/10/18 20:52:30;;;;;;;45.60;29.53;;;;;;;11.61;54.25;101795.13;10018210;29;20319;-83
2022/10/18 20:57:52;;;;;;;13.83;6.20;;;;;;;11.82;52.87;101807.75;10012381;29;20203;-83
2022/10/18 21:03:14;;;;;;;8.27;4.47;;;;;;;11.49;53.47;101811.69;10024619;29;20689;-83
2022/10/18 21:08:37;;;;;;;13.03;4.57;;;;;;;11.54;53.51;101805.97;10015870;29;20227;-83
2022/10/18 21:14:03;;;;;;;15.00;4.40;;;;;;;11.62;53.17;101813.72;10027553;29;20644;-83
2022/10/18 21:19:25;;;;;;;8.43;3.93;;;;;;;11.58;53.43;101801.41;9990040;29;20215;-83
2022/10/18 21:24:49;;;;;;;9.80;4.13;;;;;;;12.02;51.80;101800.91;9999386;29;20215;-83
2022/10/18 21:30:11;;;;;;;11.13;4.43;;;;;;;11.70;52.42;101813.06;10013052;29;20199;-83
2022/10/18 21:35:18;;;;;;;8.00;3.53;;;;;;;11.96;51.66;101797.34;10009356;29;20585;-83
2022/10/18 21:40:43;;;;;;;6.70;3.60;;;;;;;11.62;52.28;101796.78;10007818;29;20211;-83
2022/10/18 21:46:06;;;;;;;5.70;3.50;;;;;;;10.70;54.69;101796.41;10014273;29;20203;-83
2022/10/18 21:51:28;;;;;;;11.60;3.53;;;;;;;10.95;54.29;101787.63;10025575;29;20276;-83
2022/10/18 21:56:50;;;;;;;12.47;3.90;;;;;;;11.26;53.34;101790.84;9996659;29;20235;-83
2022/10/18 22:02:13;;;;;;;11.10;3.73;;;;;;;11.31;53.25;101779.47;9996879;29;20670;-83
2022/10/18 22:07:36;;;;;;;7.17;3.20;;;;;;;10.65;54.09;101771.09;10023993;29;20546;-83
2022/10/18 22:12:59;;;;;;;10.53;3.00;;;;;;;10.34;55.14;101767.75;10007085;29;20291;-82
2022/10/18 22:18:21;;;;;;;7.57;3.00;;;;;;;10.35;54.77;101767.47;10010136;29;20236;-83
2022/10/18 22:23:45;;;;;;;8.23;4.20;;;;;;;10.50;55.15;101766.44;10012229;29;20203;-82
2022/10/18 22:29:10;;;;;;;6.53;3.27;;;;;;;10.35;55.81;101773.09;9994680;29;20257;-83
2022/10/18 22:34:32;;;;;;;8.27;3.63;;;;;;;10.52;54.99;101767.84;9989399;29;20227;-82
2022/10/18 22:39:54;;;;;;;7.23;3.40;;;;;;;10.46;55.37;101766.22;10024635;29;20334;-82
2022/10/18 22:45:17;;;;;;;8.33;3.37;;;;;;;10.40;54.82;101764.59;9998699;29;20625;-83
2022/10/18 22:50:39;;;;;;;11.63;3.43;;;;;;;9.90;55.70;101777.25;10010656;29;20255;-82
2022/10/18 22:56:01;;;;;;;6.77;2.80;;;;;;;9.75;56.21;101775.41;10010242;29;20203;-82
2022/10/18 23:01:23;;;;;;;6.77;2.90;;;;;;;9.88;55.32;101773.91;10018727;29;20271;-82
2022/10/18 23:06:45;;;;;;;7.23;2.60;;;;;;;9.84;55.70;101779.28;10008136;29;20239;-83
2022/10/18 23:12:07;;;;;;;7.97;3.13;;;;;;;9.45;56.22;101776.47;9993160;29;20636;-81
2022/10/18 23:17:29;;;;;;;11.07;3.30;;;;;;;9.64;56.49;101784.25;10024670;29;20219;-80
2022/10/18 23:22:52;;;;;;;7.27;2.83;;;;;;;10.23;54.58;101769.88;9994256;29;20220;-81
2022/10/18 23:28:14;;;;;;;8.03;2.97;;;;;;;9.53;55.83;101788.25;10010828;29;20501;-81
2022/10/18 23:33:37;;;;;;;10.73;3.13;;;;;;;9.56;55.62;101791.28;10007210;29;20239;-80
2022/10/18 23:38:59;;;;;;;10.33;3.37;;;;;;;9.38;55.96;101792.84;9961050;29;20200;-81
2022/10/18 23:44:21;;;;;;;11.17;3.40;;;;;;;9.07;57.05;101791.34;9973340;29;20188;-81
2022/10/18 23:49:43;;;;;;;6.10;3.10;;;;;;;9.52;55.80;101792.19;9985760;29;20594;-80
2022/10/18 23:55:06;;;;;;;7.50;2.90;;;;;;;10.20;54.27;101776.09;9969923;29;20232;-81
